sensor_id;sensor_type;location;lat;lon;timestamp;temperature;humidity
65582;DHT22;52231;40.090;18.348;2023-06-22T00:00:35;22.40;69.40
65582;DHT22;52231;40.090;18.348;2023-06-22T00:03:06;22.40;69.60
65582;DHT22;52231;40.090;18.348;2023-06-22T00:05:35;22.40;69.90
65582;DHT22;52231;40.090;18.348;2023-06-22T00:08:06;22.40;70.20
65582;DHT22;52231;40.090;18.348;2023-06-22T00:10:35;22.30;70.50
65582;DHT22;52231;40.090;18.348;2023-06-22T00:13:10;22.30;70.70
65582;DHT22;52231;40.090;18.348;2023-06-22T00:15:43;22.30;70.80
65582;DHT22;52231;40.090;18.348;2023-06-22T00:18:12;22.30;71.00
65582;DHT22;52231;40.090;18.348;2023-06-22T00:20:44;22.30;71.30
65582;DHT22;52231;40.090;18.348;2023-06-22T00:23:13;22.30;71.50
65582;DHT22;52231;40.090;18.348;2023-06-22T00:25:43;22.30;71.90
65582;DHT22;52231;40.090;18.348;2023-06-22T00:28:12;22.30;72.10
65582;DHT22;52231;40.090;18.348;2023-06-22T00:30:40;22.30;72.40
65582;DHT22;52231;40.090;18.348;2023-06-22T00:33:08;22.30;72.70
65582;DHT22;52231;40.090;18.348;2023-06-22T00:35:36;22.20;72.90
65582;DHT22;52231;40.090;18.348;2023-06-22T00:38:04;22.30;73.10
65582;DHT22;52231;40.090;18.348;2023-06-22T00:40:33;22.20;73.50
65582;DHT22;52231;40.090;18.348;2023-06-22T00:43:01;22.20;73.70
65582;DHT22;52231;40.090;18.348;2023-06-22T00:45:29;22.20;74.00
65582;DHT22;52231;40.090;18.348;2023-06-22T00:47:58;22.20;74.30
65582;DHT22;52231;40.090;18.348;2023-06-22T00:50:32;22.20;74.40
65582;DHT22;52231;40.090;18.348;2023-06-22T00:53:06;22.20;74.70
65582;DHT22;52231;40.090;18.348;2023-06-22T00:55:42;22.20;74.90
65582;DHT22;52231;40.090;18.348;2023-06-22T00:58:15;22.10;75.00
65582;DHT22;52231;40.090;18.348;2023-06-22T01:00:44;22.10;75.20
65582;DHT22;52231;40.090;18.348;2023-06-22T01:03:12;22.10;75.30
65582;DHT22;52231;40.090;18.348;2023-06-22T01:05:40;22.10;75.40
65582;DHT22;52231;40.090;18.348;2023-06-22T01:11:08;22.00;75.70
65582;DHT22;52231;40.090;18.348;2023-06-22T01:13:50;22.10;75.90
65582;DHT22;52231;40.090;18.348;2023-06-22T01:16:29;22.00;76.00
65582;DHT22;52231;40.090;18.348;2023-06-22T01:19:01;22.10;76.10
65582;DHT22;52231;40.090;18.348;2023-06-22T01:21:33;22.10;76.10
65582;DHT22;52231;40.090;18.348;2023-06-22T01:24:27;22.10;76.10
65582;DHT22;52231;40.090;18.348;2023-06-22T01:29:41;22.00;76.30
65582;DHT22;52231;40.090;18.348;2023-06-22T01:32:11;22.00;76.50
65582;DHT22;52231;40.090;18.348;2023-06-22T01:34:41;22.00;76.60
65582;DHT22;52231;40.090;18.348;2023-06-22T01:37:11;21.90;76.70
65582;DHT22;52231;40.090;18.348;2023-06-22T01:39:40;21.90;76.90
65582;DHT22;52231;40.090;18.348;2023-06-22T01:42:09;21.90;77.00
65582;DHT22;52231;40.090;18.348;2023-06-22T01:44:40;21.90;77.20
65582;DHT22;52231;40.090;18.348;2023-06-22T01:47:09;21.90;77.10
65582;DHT22;52231;40.090;18.348;2023-06-22T01:49:39;21.90;77.30
65582;DHT22;52231;40.090;18.348;2023-06-22T01:52:08;21.90;77.30
65582;DHT22;52231;40.090;18.348;2023-06-22T01:54:39;21.90;77.50
65582;DHT22;52231;40.090;18.348;2023-06-22T01:57:08;21.90;77.50
65582;DHT22;52231;40.090;18.348;2023-06-22T02:02:24;21.90;77.60
65582;DHT22;52231;40.090;18.348;2023-06-22T02:05:00;21.80;77.70
65582;DHT22;52231;40.090;18.348;2023-06-22T02:07:34;21.80;77.80
65582;DHT22;52231;40.090;18.348;2023-06-22T02:10:06;21.80;77.90
65582;DHT22;52231;40.090;18.348;2023-06-22T02:12:36;21.80;78.00
65582;DHT22;52231;40.090;18.348;2023-06-22T02:15:05;21.80;78.10
65582;DHT22;52231;40.090;18.348;2023-06-22T02:17:34;21.80;78.10
65582;DHT22;52231;40.090;18.348;2023-06-22T02:20:03;21.80;78.20
65582;DHT22;52231;40.090;18.348;2023-06-22T02:22:36;21.70;78.30
65582;DHT22;52231;40.090;18.348;2023-06-22T02:25:06;21.70;78.40
65582;DHT22;52231;40.090;18.348;2023-06-22T02:27:35;21.70;78.60
65582;DHT22;52231;40.090;18.348;2023-06-22T02:30:03;21.70;78.60
65582;DHT22;52231;40.090;18.348;2023-06-22T02:32:31;21.60;78.70
65582;DHT22;52231;40.090;18.348;2023-06-22T02:35:02;21.60;78.80
65582;DHT22;52231;40.090;18.348;2023-06-22T02:37:36;21.60;78.90
65582;DHT22;52231;40.090;18.348;2023-06-22T02:40:09;21.50;78.90
65582;DHT22;52231;40.090;18.348;2023-06-22T02:42:39;21.60;79.00
65582;DHT22;52231;40.090;18.348;2023-06-22T02:45:09;21.50;79.10
65582;DHT22;52231;40.090;18.348;2023-06-22T02:47:37;21.50;79.10
65582;DHT22;52231;40.090;18.348;2023-06-22T02:50:05;21.50;79.20
65582;DHT22;52231;40.090;18.348;2023-06-22T02:52:35;21.50;79.30
65582;DHT22;52231;40.090;18.348;2023-06-22T02:55:04;21.50;79.40
65582;DHT22;52231;40.090;18.348;2023-06-22T02:57:33;21.40;79.40
65582;DHT22;52231;40.090;18.348;2023-06-22T03:00:03;21.40;79.50
65582;DHT22;52231;40.090;18.348;2023-06-22T03:02:40;21.40;79.60
65582;DHT22;52231;40.090;18.348;2023-06-22T03:05:09;21.40;79.70
65582;DHT22;52231;40.090;18.348;2023-06-22T03:07:41;21.40;79.70
65582;DHT22;52231;40.090;18.348;2023-06-22T03:10:11;21.40;79.80
65582;DHT22;52231;40.090;18.348;2023-06-22T03:12:40;21.30;79.80
65582;DHT22;52231;40.090;18.348;2023-06-22T03:15:11;21.40;79.90
65582;DHT22;52231;40.090;18.348;2023-06-22T03:17:40;21.40;80.00
65582;DHT22;52231;40.090;18.348;2023-06-22T03:20:10;21.30;80.10
65582;DHT22;52231;40.090;18.348;2023-06-22T03:22:41;21.40;80.00
65582;DHT22;52231;40.090;18.348;2023-06-22T03:25:11;21.40;80.00
65582;DHT22;52231;40.090;18.348;2023-06-22T03:27:46;21.40;80.00
65582;DHT22;52231;40.090;18.348;2023-06-22T03:30:16;21.40;80.00
65582;DHT22;52231;40.090;18.348;2023-06-22T03:32:45;21.40;80.00
65582;DHT22;52231;40.090;18.348;2023-06-22T03:35:15;21.40;80.10
65582;DHT22;52231;40.090;18.348;2023-06-22T03:37:43;21.50;80.10
65582;DHT22;52231;40.090;18.348;2023-06-22T03:40:11;21.60;80.00
65582;DHT22;52231;40.090;18.348;2023-06-22T03:42:40;21.70;79.90
65582;DHT22;52231;40.090;18.348;2023-06-22T03:45:10;21.80;79.70
65582;DHT22;52231;40.090;18.348;2023-06-22T03:47:39;21.80;79.60
65582;DHT22;52231;40.090;18.348;2023-06-22T03:50:07;22.00;79.40
65582;DHT22;52231;40.090;18.348;2023-06-22T03:52:35;22.10;79.10
65582;DHT22;52231;40.090;18.348;2023-06-22T03:55:04;22.30;78.70
65582;DHT22;52231;40.090;18.348;2023-06-22T03:57:32;22.40;78.40
65582;DHT22;52231;40.090;18.348;2023-06-22T04:00:01;22.60;78.00
65582;DHT22;52231;40.090;18.348;2023-06-22T04:02:39;22.70;77.60
65582;DHT22;52231;40.090;18.348;2023-06-22T04:05:09;22.80;77.10
65582;DHT22;52231;40.090;18.348;2023-06-22T04:07:38;23.10;76.70
65582;DHT22;52231;40.090;18.348;2023-06-22T04:10:06;23.40;75.90
65582;DHT22;52231;40.090;18.348;2023-06-22T04:12:35;23.80;74.90
65582;DHT22;52231;40.090;18.348;2023-06-22T04:15:05;24.10;73.90
65582;DHT22;52231;40.090;18.348;2023-06-22T04:17:33;24.50;72.90
65582;DHT22;52231;40.090;18.348;2023-06-22T04:20:01;24.90;71.60
65582;DHT22;52231;40.090;18.348;2023-06-22T04:22:31;25.30;70.50
65582;DHT22;52231;40.090;18.348;2023-06-22T04:24:59;25.80;69.20
65582;DHT22;52231;40.090;18.348;2023-06-22T04:27:27;26.30;67.90
65582;DHT22;52231;40.090;18.348;2023-06-22T04:29:55;26.70;66.30
65582;DHT22;52231;40.090;18.348;2023-06-22T04:32:24;27.10;64.80
65582;DHT22;52231;40.090;18.348;2023-06-22T04:34:52;27.60;63.70
65582;DHT22;52231;40.090;18.348;2023-06-22T04:37:20;27.90;62.30
65582;DHT22;52231;40.090;18.348;2023-06-22T04:39:51;28.30;61.50
65582;DHT22;52231;40.090;18.348;2023-06-22T04:42:19;28.80;60.00
65582;DHT22;52231;40.090;18.348;2023-06-22T04:44:48;29.10;58.90
65582;DHT22;52231;40.090;18.348;2023-06-22T04:47:16;29.40;57.90
65582;DHT22;52231;40.090;18.348;2023-06-22T04:49:44;29.70;56.50
65582;DHT22;52231;40.090;18.348;2023-06-22T04:52:13;30.00;55.80
65582;DHT22;52231;40.090;18.348;2023-06-22T04:54:48;30.20;54.80
65582;DHT22;52231;40.090;18.348;2023-06-22T04:57:18;30.40;54.40
65582;DHT22;52231;40.090;18.348;2023-06-22T04:59:47;30.50;54.20
65582;DHT22;52231;40.090;18.348;2023-06-22T05:02:15;30.60;53.90
65582;DHT22;52231;40.090;18.348;2023-06-22T05:04:44;30.70;53.80
65582;DHT22;52231;40.090;18.348;2023-06-22T05:07:12;30.70;53.50
65582;DHT22;52231;40.090;18.348;2023-06-22T05:09:41;30.70;53.70
65582;DHT22;52231;40.090;18.348;2023-06-22T05:12:09;30.50;53.90
65582;DHT22;52231;40.090;18.348;2023-06-22T05:14:38;30.50;54.50
65582;DHT22;52231;40.090;18.348;2023-06-22T05:17:06;30.70;54.30
65582;DHT22;52231;40.090;18.348;2023-06-22T05:19:42;30.90;53.50
65582;DHT22;52231;40.090;18.348;2023-06-22T05:22:14;31.10;52.70
65582;DHT22;52231;40.090;18.348;2023-06-22T05:24:43;31.20;52.10
65582;DHT22;52231;40.090;18.348;2023-06-22T05:27:11;31.30;51.40
65582;DHT22;52231;40.090;18.348;2023-06-22T05:29:40;31.50;51.60
65582;DHT22;52231;40.090;18.348;2023-06-22T05:32:09;31.80;51.10
65582;DHT22;52231;40.090;18.348;2023-06-22T05:34:38;32.00;50.10
65582;DHT22;52231;40.090;18.348;2023-06-22T05:37:07;32.20;49.70
65582;DHT22;52231;40.090;18.348;2023-06-22T05:39:37;32.30;49.10
65582;DHT22;52231;40.090;18.348;2023-06-22T05:42:06;32.60;49.00
65582;DHT22;52231;40.090;18.348;2023-06-22T05:44:37;33.00;48.20
65582;DHT22;52231;40.090;18.348;2023-06-22T05:47:08;33.30;47.40
65582;DHT22;52231;40.090;18.348;2023-06-22T05:49:37;33.40;46.60
65582;DHT22;52231;40.090;18.348;2023-06-22T05:52:05;33.60;46.40
65582;DHT22;52231;40.090;18.348;2023-06-22T05:54:34;34.00;45.50
65582;DHT22;52231;40.090;18.348;2023-06-22T05:57:02;34.00;44.90
65582;DHT22;52231;40.090;18.348;2023-06-22T05:59:30;34.30;44.30
65582;DHT22;52231;40.090;18.348;2023-06-22T06:01:59;34.40;43.90
65582;DHT22;52231;40.090;18.348;2023-06-22T06:04:27;34.50;43.60
65582;DHT22;52231;40.090;18.348;2023-06-22T06:06:55;34.80;43.30
65582;DHT22;52231;40.090;18.348;2023-06-22T06:09:23;35.10;42.70
65582;DHT22;52231;40.090;18.348;2023-06-22T06:11:52;35.40;42.10
65582;DHT22;52231;40.090;18.348;2023-06-22T06:14:20;35.50;42.00
65582;DHT22;52231;40.090;18.348;2023-06-22T06:16:49;35.60;40.90
65582;DHT22;52231;40.090;18.348;2023-06-22T06:19:21;35.40;40.90
65582;DHT22;52231;40.090;18.348;2023-06-22T06:21:50;35.30;40.60
65582;DHT22;52231;40.090;18.348;2023-06-22T06:24:19;35.40;41.60
65582;DHT22;52231;40.090;18.348;2023-06-22T06:26:47;35.70;41.10
65582;DHT22;52231;40.090;18.348;2023-06-22T06:29:18;35.60;40.50
65582;DHT22;52231;40.090;18.348;2023-06-22T06:31:46;35.70;39.90
65582;DHT22;52231;40.090;18.348;2023-06-22T06:34:16;35.90;39.50
65582;DHT22;52231;40.090;18.348;2023-06-22T06:36:44;36.10;39.90
65582;DHT22;52231;40.090;18.348;2023-06-22T06:39:13;36.30;39.40
65582;DHT22;52231;40.090;18.348;2023-06-22T06:41:41;36.60;38.70
65582;DHT22;52231;40.090;18.348;2023-06-22T06:44:15;36.70;38.80
65582;DHT22;52231;40.090;18.348;2023-06-22T06:46:43;36.90;38.50
65582;DHT22;52231;40.090;18.348;2023-06-22T06:49:11;36.80;37.70
65582;DHT22;52231;40.090;18.348;2023-06-22T06:51:43;36.90;37.70
65582;DHT22;52231;40.090;18.348;2023-06-22T06:54:11;36.70;37.80
65582;DHT22;52231;40.090;18.348;2023-06-22T06:56:40;36.80;37.70
65582;DHT22;52231;40.090;18.348;2023-06-22T06:59:08;36.80;37.80
65582;DHT22;52231;40.090;18.348;2023-06-22T07:01:36;36.80;38.30
65582;DHT22;52231;40.090;18.348;2023-06-22T07:04:05;36.80;38.40
65582;DHT22;52231;40.090;18.348;2023-06-22T07:06:33;37.10;38.50
65582;DHT22;52231;40.090;18.348;2023-06-22T07:09:01;37.40;37.70
65582;DHT22;52231;40.090;18.348;2023-06-22T07:11:31;37.50;36.80
65582;DHT22;52231;40.090;18.348;2023-06-22T07:13:59;37.50;37.50
65582;DHT22;52231;40.090;18.348;2023-06-22T07:16:29;37.60;37.60
65582;DHT22;52231;40.090;18.348;2023-06-22T07:18:59;37.60;37.10
65582;DHT22;52231;40.090;18.348;2023-06-22T07:21:28;37.60;36.90
65582;DHT22;52231;40.090;18.348;2023-06-22T07:23:56;37.60;36.20
65582;DHT22;52231;40.090;18.348;2023-06-22T07:26:25;37.50;35.90
65582;DHT22;52231;40.090;18.348;2023-06-22T07:28:53;37.30;36.50
65582;DHT22;52231;40.090;18.348;2023-06-22T07:31:24;37.50;36.00
65582;DHT22;52231;40.090;18.348;2023-06-22T07:33:53;37.60;36.40
65582;DHT22;52231;40.090;18.348;2023-06-22T07:36:21;37.60;35.70
65582;DHT22;52231;40.090;18.348;2023-06-22T07:38:49;37.60;36.20
65582;DHT22;52231;40.090;18.348;2023-06-22T07:41:17;37.80;36.30
65582;DHT22;52231;40.090;18.348;2023-06-22T07:43:47;38.00;36.00
65582;DHT22;52231;40.090;18.348;2023-06-22T07:46:16;38.10;35.20
65582;DHT22;52231;40.090;18.348;2023-06-22T07:48:44;38.20;35.10
65582;DHT22;52231;40.090;18.348;2023-06-22T07:51:12;38.30;35.30
65582;DHT22;52231;40.090;18.348;2023-06-22T07:53:44;38.40;34.80
65582;DHT22;52231;40.090;18.348;2023-06-22T07:56:13;38.30;34.50
65582;DHT22;52231;40.090;18.348;2023-06-22T07:58:41;38.40;35.10
65582;DHT22;52231;40.090;18.348;2023-06-22T08:01:09;38.30;33.80
65582;DHT22;52231;40.090;18.348;2023-06-22T08:03:38;38.50;34.20
65582;DHT22;52231;40.090;18.348;2023-06-22T08:06:07;38.40;34.20
65582;DHT22;52231;40.090;18.348;2023-06-22T08:08:37;38.60;34.00
65582;DHT22;52231;40.090;18.348;2023-06-22T08:11:05;38.70;34.20
65582;DHT22;52231;40.090;18.348;2023-06-22T08:13:33;39.00;33.60
65582;DHT22;52231;40.090;18.348;2023-06-22T08:16:02;39.10;33.30
65582;DHT22;52231;40.090;18.348;2023-06-22T08:18:30;38.90;33.40
65582;DHT22;52231;40.090;18.348;2023-06-22T08:21:00;38.80;34.00
65582;DHT22;52231;40.090;18.348;2023-06-22T08:23:29;38.80;34.00
65582;DHT22;52231;40.090;18.348;2023-06-22T08:25:57;39.00;33.70
65582;DHT22;52231;40.090;18.348;2023-06-22T08:28:25;39.20;33.50
65582;DHT22;52231;40.090;18.348;2023-06-22T08:30:53;39.20;33.20
65582;DHT22;52231;40.090;18.348;2023-06-22T08:33:23;39.30;32.40
65582;DHT22;52231;40.090;18.348;2023-06-22T08:35:57;39.40;33.10
65582;DHT22;52231;40.090;18.348;2023-06-22T08:38:26;39.60;33.60
65582;DHT22;52231;40.090;18.348;2023-06-22T08:40:54;39.80;32.30
65582;DHT22;52231;40.090;18.348;2023-06-22T08:43:23;40.10;32.00
65582;DHT22;52231;40.090;18.348;2023-06-22T08:45:51;40.30;32.10
65582;DHT22;52231;40.090;18.348;2023-06-22T08:48:19;40.60;32.40
65582;DHT22;52231;40.090;18.348;2023-06-22T08:50:47;40.60;31.80
65582;DHT22;52231;40.090;18.348;2023-06-22T08:53:15;40.60;31.70
65582;DHT22;52231;40.090;18.348;2023-06-22T08:55:43;40.80;31.30
65582;DHT22;52231;40.090;18.348;2023-06-22T08:58:13;40.90;31.10
65582;DHT22;52231;40.090;18.348;2023-06-22T09:00:41;40.90;30.90
65582;DHT22;52231;40.090;18.348;2023-06-22T09:03:09;40.90;30.70
65582;DHT22;52231;40.090;18.348;2023-06-22T09:05:38;40.70;31.00
65582;DHT22;52231;40.090;18.348;2023-06-22T09:08:07;40.70;31.20
65582;DHT22;52231;40.090;18.348;2023-06-22T09:10:35;40.50;31.70
65582;DHT22;52231;40.090;18.348;2023-06-22T09:13:03;40.40;31.60
65582;DHT22;52231;40.090;18.348;2023-06-22T09:15:31;40.60;31.90
65582;DHT22;52231;40.090;18.348;2023-06-22T09:17:59;40.40;31.70
65582;DHT22;52231;40.090;18.348;2023-06-22T09:20:28;40.30;31.70
65582;DHT22;52231;40.090;18.348;2023-06-22T09:22:57;40.30;31.60
65582;DHT22;52231;40.090;18.348;2023-06-22T09:25:25;40.60;31.60
65582;DHT22;52231;40.090;18.348;2023-06-22T09:27:54;40.50;31.80
65582;DHT22;52231;40.090;18.348;2023-06-22T09:30:22;40.70;31.20
65582;DHT22;52231;40.090;18.348;2023-06-22T09:32:51;40.50;31.50
65582;DHT22;52231;40.090;18.348;2023-06-22T09:35:20;40.70;31.50
65582;DHT22;52231;40.090;18.348;2023-06-22T09:37:48;40.50;31.60
65582;DHT22;52231;40.090;18.348;2023-06-22T09:40:16;40.70;32.00
65582;DHT22;52231;40.090;18.348;2023-06-22T09:42:45;40.80;31.50
65582;DHT22;52231;40.090;18.348;2023-06-22T09:45:13;40.80;31.60
65582;DHT22;52231;40.090;18.348;2023-06-22T09:47:42;40.60;31.40
65582;DHT22;52231;40.090;18.348;2023-06-22T09:50:10;40.50;31.40
65582;DHT22;52231;40.090;18.348;2023-06-22T09:52:39;40.60;31.40
65582;DHT22;52231;40.090;18.348;2023-06-22T09:55:12;40.50;30.90
65582;DHT22;52231;40.090;18.348;2023-06-22T09:57:40;40.60;31.60
65582;DHT22;52231;40.090;18.348;2023-06-22T10:00:11;40.70;32.10
65582;DHT22;52231;40.090;18.348;2023-06-22T10:02:43;40.80;31.20
65582;DHT22;52231;40.090;18.348;2023-06-22T10:05:11;40.90;31.90
65582;DHT22;52231;40.090;18.348;2023-06-22T10:07:40;41.10;31.70
65582;DHT22;52231;40.090;18.348;2023-06-22T10:10:11;41.20;32.40
65582;DHT22;52231;40.090;18.348;2023-06-22T10:12:56;41.20;32.40
65582;DHT22;52231;40.090;18.348;2023-06-22T10:15:28;41.00;32.70
65582;DHT22;52231;40.090;18.348;2023-06-22T10:17:56;40.40;33.10
65582;DHT22;52231;40.090;18.348;2023-06-22T10:20:24;40.20;33.20
65582;DHT22;52231;40.090;18.348;2023-06-22T10:22:54;40.10;32.60
65582;DHT22;52231;40.090;18.348;2023-06-22T10:25:23;40.10;32.80
65582;DHT22;52231;40.090;18.348;2023-06-22T10:27:51;40.20;32.80
65582;DHT22;52231;40.090;18.348;2023-06-22T10:30:19;40.60;32.00
65582;DHT22;52231;40.090;18.348;2023-06-22T10:32:48;40.80;31.20
65582;DHT22;52231;40.090;18.348;2023-06-22T10:35:16;41.10;30.90
65582;DHT22;52231;40.090;18.348;2023-06-22T10:37:45;41.10;30.80
65582;DHT22;52231;40.090;18.348;2023-06-22T10:40:16;41.20;31.30
65582;DHT22;52231;40.090;18.348;2023-06-22T10:42:47;41.10;31.70
65582;DHT22;52231;40.090;18.348;2023-06-22T10:45:15;41.40;31.50
65582;DHT22;52231;40.090;18.348;2023-06-22T10:47:43;41.40;31.60
65582;DHT22;52231;40.090;18.348;2023-06-22T10:50:12;41.40;31.50
65582;DHT22;52231;40.090;18.348;2023-06-22T10:52:41;41.60;30.70
65582;DHT22;52231;40.090;18.348;2023-06-22T10:55:10;41.50;30.60
65582;DHT22;52231;40.090;18.348;2023-06-22T10:57:38;41.70;30.90
65582;DHT22;52231;40.090;18.348;2023-06-22T11:00:12;41.40;30.70
65582;DHT22;52231;40.090;18.348;2023-06-22T11:02:40;41.20;31.00
65582;DHT22;52231;40.090;18.348;2023-06-22T11:05:08;41.00;31.70
65582;DHT22;52231;40.090;18.348;2023-06-22T11:07:41;41.10;30.80
65582;DHT22;52231;40.090;18.348;2023-06-22T11:10:11;41.40;31.50
65582;DHT22;52231;40.090;18.348;2023-06-22T11:12:40;41.50;31.00
65582;DHT22;52231;40.090;18.348;2023-06-22T11:15:10;41.60;31.40
65582;DHT22;52231;40.090;18.348;2023-06-22T11:17:38;41.20;31.60
65582;DHT22;52231;40.090;18.348;2023-06-22T11:20:07;40.90;32.70
65582;DHT22;52231;40.090;18.348;2023-06-22T11:22:42;40.80;33.20
65582;DHT22;52231;40.090;18.348;2023-06-22T11:25:10;40.90;32.90
65582;DHT22;52231;40.090;18.348;2023-06-22T11:27:40;41.10;32.20
65582;DHT22;52231;40.090;18.348;2023-06-22T11:30:09;41.10;31.80
65582;DHT22;52231;40.090;18.348;2023-06-22T11:32:37;40.70;31.80
65582;DHT22;52231;40.090;18.348;2023-06-22T11:35:06;40.50;32.20
65582;DHT22;52231;40.090;18.348;2023-06-22T11:37:35;40.50;31.40
65582;DHT22;52231;40.090;18.348;2023-06-22T11:40:03;40.70;31.40
65582;DHT22;52231;40.090;18.348;2023-06-22T11:42:34;41.00;30.30
65582;DHT22;52231;40.090;18.348;2023-06-22T11:45:04;41.10;30.20
65582;DHT22;52231;40.090;18.348;2023-06-22T11:47:32;41.10;29.20
65582;DHT22;52231;40.090;18.348;2023-06-22T11:50:06;41.50;29.40
65582;DHT22;52231;40.090;18.348;2023-06-22T11:52:35;41.80;30.20
65582;DHT22;52231;40.090;18.348;2023-06-22T11:55:06;41.80;29.80
65582;DHT22;52231;40.090;18.348;2023-06-22T11:57:36;42.00;29.50
65582;DHT22;52231;40.090;18.348;2023-06-22T12:00:05;42.20;29.60
65582;DHT22;52231;40.090;18.348;2023-06-22T12:02:41;42.30;29.60
65582;DHT22;52231;40.090;18.348;2023-06-22T12:05:10;41.90;30.40
65582;DHT22;52231;40.090;18.348;2023-06-22T12:07:38;41.20;30.90
65582;DHT22;52231;40.090;18.348;2023-06-22T12:10:07;41.00;31.00
65582;DHT22;52231;40.090;18.348;2023-06-22T12:12:35;40.30;32.10
65582;DHT22;52231;40.090;18.348;2023-06-22T12:15:04;39.80;32.50
65582;DHT22;52231;40.090;18.348;2023-06-22T12:17:32;39.20;33.30
65582;DHT22;52231;40.090;18.348;2023-06-22T12:20:01;38.80;33.70
65582;DHT22;52231;40.090;18.348;2023-06-22T12:22:29;38.70;34.40
65582;DHT22;52231;40.090;18.348;2023-06-22T12:24:58;39.00;34.00
65582;DHT22;52231;40.090;18.348;2023-06-22T12:27:26;39.30;33.60
65582;DHT22;52231;40.090;18.348;2023-06-22T12:29:54;39.50;32.60
65582;DHT22;52231;40.090;18.348;2023-06-22T12:32:23;39.40;33.40
65582;DHT22;52231;40.090;18.348;2023-06-22T12:34:52;39.60;32.20
65582;DHT22;52231;40.090;18.348;2023-06-22T12:37:20;39.50;33.00
65582;DHT22;52231;40.090;18.348;2023-06-22T12:39:48;39.40;33.30
65582;DHT22;52231;40.090;18.348;2023-06-22T12:42:17;39.20;33.70
65582;DHT22;52231;40.090;18.348;2023-06-22T12:44:45;39.10;33.90
65582;DHT22;52231;40.090;18.348;2023-06-22T12:47:13;39.20;33.50
65582;DHT22;52231;40.090;18.348;2023-06-22T12:49:42;39.20;33.20
65582;DHT22;52231;40.090;18.348;2023-06-22T12:52:10;39.40;33.40
65582;DHT22;52231;40.090;18.348;2023-06-22T12:54:39;39.60;32.80
65582;DHT22;52231;40.090;18.348;2023-06-22T12:57:13;39.60;33.30
65582;DHT22;52231;40.090;18.348;2023-06-22T12:59:41;39.20;33.80
65582;DHT22;52231;40.090;18.348;2023-06-22T13:02:10;38.70;33.80
65582;DHT22;52231;40.090;18.348;2023-06-22T13:04:39;38.80;34.50
65582;DHT22;52231;40.090;18.348;2023-06-22T13:07:07;39.00;33.80
65582;DHT22;52231;40.090;18.348;2023-06-22T13:09:46;39.30;33.40
65582;DHT22;52231;40.090;18.348;2023-06-22T13:12:22;39.70;32.80
65582;DHT22;52231;40.090;18.348;2023-06-22T13:14:54;39.70;32.50
65582;DHT22;52231;40.090;18.348;2023-06-22T13:17:22;39.90;33.40
65582;DHT22;52231;40.090;18.348;2023-06-22T13:19:50;40.20;32.40
65582;DHT22;52231;40.090;18.348;2023-06-22T13:24:59;39.90;32.40
65582;DHT22;52231;40.090;18.348;2023-06-22T13:27:28;39.70;32.90
65582;DHT22;52231;40.090;18.348;2023-06-22T13:29:57;39.20;34.60
65582;DHT22;52231;40.090;18.348;2023-06-22T13:32:25;39.20;34.30
65582;DHT22;52231;40.090;18.348;2023-06-22T13:34:54;39.00;33.80
65582;DHT22;52231;40.090;18.348;2023-06-22T13:37:22;39.00;33.70
65582;DHT22;52231;40.090;18.348;2023-06-22T13:39:50;39.10;33.40
65582;DHT22;52231;40.090;18.348;2023-06-22T13:42:19;38.90;34.00
65582;DHT22;52231;40.090;18.348;2023-06-22T13:44:47;38.70;34.30
65582;DHT22;52231;40.090;18.348;2023-06-22T13:47:15;38.30;34.60
65582;DHT22;52231;40.090;18.348;2023-06-22T13:49:43;38.20;35.20
65582;DHT22;52231;40.090;18.348;2023-06-22T13:52:15;38.10;35.80
65582;DHT22;52231;40.090;18.348;2023-06-22T13:54:43;37.80;35.70
65582;DHT22;52231;40.090;18.348;2023-06-22T13:57:11;37.70;35.90
65582;DHT22;52231;40.090;18.348;2023-06-22T13:59:40;37.60;36.10
65582;DHT22;52231;40.090;18.348;2023-06-22T14:02:08;37.80;36.70
65582;DHT22;52231;40.090;18.348;2023-06-22T14:04:36;37.70;36.70
65582;DHT22;52231;40.090;18.348;2023-06-22T14:07:05;37.60;37.90
65582;DHT22;52231;40.090;18.348;2023-06-22T14:09:33;37.60;37.90
65582;DHT22;52231;40.090;18.348;2023-06-22T14:12:05;37.80;37.40
65582;DHT22;52231;40.090;18.348;2023-06-22T14:14:34;37.80;37.80
65582;DHT22;52231;40.090;18.348;2023-06-22T14:17:03;37.80;37.10
65582;DHT22;52231;40.090;18.348;2023-06-22T14:19:32;37.80;37.60
65582;DHT22;52231;40.090;18.348;2023-06-22T14:22:01;37.60;37.30
65582;DHT22;52231;40.090;18.348;2023-06-22T14:24:29;37.70;37.50
65582;DHT22;52231;40.090;18.348;2023-06-22T14:26:58;37.80;37.60
65582;DHT22;52231;40.090;18.348;2023-06-22T14:29:27;37.60;37.20
65582;DHT22;52231;40.090;18.348;2023-06-22T14:31:55;37.50;37.40
65582;DHT22;52231;40.090;18.348;2023-06-22T14:34:24;37.60;37.60
65582;DHT22;52231;40.090;18.348;2023-06-22T14:36:52;37.40;37.20
65582;DHT22;52231;40.090;18.348;2023-06-22T14:39:23;37.40;36.90
65582;DHT22;52231;40.090;18.348;2023-06-22T14:41:51;37.30;37.10
65582;DHT22;52231;40.090;18.348;2023-06-22T14:44:20;37.30;37.60
65582;DHT22;52231;40.090;18.348;2023-06-22T14:46:48;37.10;37.90
65582;DHT22;52231;40.090;18.348;2023-06-22T14:49:17;36.90;38.20
65582;DHT22;52231;40.090;18.348;2023-06-22T14:51:45;36.80;38.90
65582;DHT22;52231;40.090;18.348;2023-06-22T14:54:13;36.80;38.60
65582;DHT22;52231;40.090;18.348;2023-06-22T14:56:41;36.50;38.60
65582;DHT22;52231;40.090;18.348;2023-06-22T14:59:12;36.40;39.10
65582;DHT22;52231;40.090;18.348;2023-06-22T15:01:43;36.30;39.10
65582;DHT22;52231;40.090;18.348;2023-06-22T15:04:12;36.10;39.70
65582;DHT22;52231;40.090;18.348;2023-06-22T15:06:41;35.90;39.50
65582;DHT22;52231;40.090;18.348;2023-06-22T15:09:09;36.00;39.20
65582;DHT22;52231;40.090;18.348;2023-06-22T15:11:38;36.00;37.80
65582;DHT22;52231;40.090;18.348;2023-06-22T15:14:06;36.00;38.20
65582;DHT22;52231;40.090;18.348;2023-06-22T15:16:34;35.90;39.10
65582;DHT22;52231;40.090;18.348;2023-06-22T15:19:02;35.80;39.30
65582;DHT22;52231;40.090;18.348;2023-06-22T15:21:31;35.70;39.90
65582;DHT22;52231;40.090;18.348;2023-06-22T15:23:59;35.60;39.50
65582;DHT22;52231;40.090;18.348;2023-06-22T15:26:27;35.50;40.20
65582;DHT22;52231;40.090;18.348;2023-06-22T15:28:56;35.40;40.70
65582;DHT22;52231;40.090;18.348;2023-06-22T15:31:25;35.30;40.70
65582;DHT22;52231;40.090;18.348;2023-06-22T15:33:54;35.30;39.90
65582;DHT22;52231;40.090;18.348;2023-06-22T15:36:22;35.20;40.30
65582;DHT22;52231;40.090;18.348;2023-06-22T15:38:51;35.10;40.10